Flight Track Log - Related Links

Times and Time Zones

All times are in EST time to prevent confusion due to time zone crossing. See the N45NS flight status page for this flight to view local times or setup timezone preferences in your user account.

Time Position Orientation Groundspeed Altitude Reporting Facility
EST Latitude Longitude Course Direction KTS MPH feet Rate Location/Type
Thu 04:33:10 PM 36.4997 -82.3781 169° South 187 215 3,300  Level Atlanta Center
Thu 04:34:10 PM 36.4800 -82.3192 113° Southeast 193 222 6,900 3,500 Climbing Atlanta Center
Thu 04:35:10 PM 36.4153 -82.3128 175° South 187 215 10,300 3,050 Climbing Atlanta Center
Thu 04:36:10 PM 36.3381 -82.3092 178° South 255 293 13,000 2,650 Climbing Atlanta Center
Thu 04:37:10 PM 36.2589 -82.3058 178° South 282 325 15,600 2,600 Climbing Atlanta Center
Thu 04:38:00 PM 36.0198 -82.2967 169° South  Level Estimated
Thu 04:38:10 PM 36.1775 -82.3025 178° South 291 335 18,200  Level Atlanta Center
Thu 04:39:10 PM 36.1044 -82.2989 178° South 281 323 21,100 2,700 Climbing Atlanta Center
Thu 04:40:10 PM 36.0272 -82.2956 178° South 275 316 23,600 2,450 Climbing Atlanta Center
Thu 04:41:10 PM 35.9517 -82.2792 170° South 275 316 26,000 2,450 Climbing Atlanta Center
Thu 04:42:10 PM 35.8744 -82.2653 172° South 275 316 28,500 2,450 Climbing Atlanta Center
Thu 04:43:10 PM 35.8011 -82.2517 171° South 275 316 30,900 2,250 Climbing Atlanta Center
Thu 04:44:10 PM 35.7364 -82.2428 174° South 269 310 33,000 2,150 Climbing Atlanta Center
Thu 04:45:10 PM 35.6672 -82.2289 171° South 258 297 35,200 1,500 Climbing Atlanta Center
Thu 04:46:10 PM 35.6003 -82.2150 170° South 253 291 36,000 400 Climbing Atlanta Center
Thu 04:47:10 PM 35.5231 -82.1989 170° South 265 305 36,000  Level Atlanta Center
Thu 04:48:10 PM 35.4394 -82.1856 173° South 284 327 36,000  Level Atlanta Center
Thu 04:49:10 PM 35.3514 -82.1697 172° South 311 358 36,000  Level Atlanta Center
Thu 04:50:10 PM 35.2636 -82.1514 170° South 316 364 36,000  Level Atlanta Center
Thu 04:51:10 PM 35.1797 -82.1381 173° South 316 364 36,000  Level Atlanta Center
Thu 04:52:10 PM 35.0983 -82.1222 171° South 311 358 36,000  Level Atlanta Center
Thu 04:53:10 PM 35.0186 -82.1086 172° South 311 358 36,000  Level Atlanta Center
Thu 04:54:10 PM 34.9328 -82.0906 170° South 306 352 36,000 350 Level Atlanta Center
Thu 04:55:10 PM 34.8597 -82.0744 170° South 306 352 36,700 900 Climbing Atlanta Center
Thu 04:56:10 PM 34.7800 -82.0611 172° South 306 352 37,800 950 Climbing Atlanta Center
Thu 04:57:10 PM 34.7028 -82.0478 172° South 296 341 38,600 750 Climbing Atlanta Center
Thu 04:58:10 PM 34.6253 -82.0319 170° South 290 334 39,300 850 Climbing Atlanta Center
Thu 04:59:10 PM 34.5478 -82.0186 172° South 290 334 40,300 543 Climbing Atlanta Center
Thu 05:01:18 PM 34.3736 -81.9869 171° South 289 333 41,000 223 Climbing Jacksonville Center
Thu 05:02:18 PM 34.2900 -81.9703 171° South 300 345 41,000  Level Jacksonville Center
Thu 05:03:19 PM 34.2003 -81.9536 171° South 310 357 41,000  Level Jacksonville Center
Thu 05:04:18 PM 34.1103 -81.9369 171° South 322 371 41,000  Level Jacksonville Center
Thu 05:05:18 PM 34.0247 -81.9203 171° South 327 376 41,000  Level Jacksonville Center
Thu 05:06:18 PM 33.9347 -81.9064 173° South 332 382 41,000  Level Jacksonville Center
Thu 05:07:18 PM 33.8469 -81.8897 171° South 332 382 41,000  Level Jacksonville Center
Thu 05:08:19 PM 33.7592 -81.8758 173° South 332 382 41,000  Level Jacksonville Center
Thu 05:09:18 PM 33.6714 -81.8569 170° South 327 376 41,000  Level Jacksonville Center
Thu 05:10:18 PM 33.5836 -81.8406 171° South 327 376 41,000  Level Jacksonville Center
Thu 05:11:18 PM 33.4958 -81.8267 172° South 327 376 41,000  Level Jacksonville Center
Thu 05:12:19 PM 33.4061 -81.8128 173° South 327 376 41,000  Level Jacksonville Center
Thu 05:13:19 PM 33.3183 -81.7964 171° South 327 376 41,000  Level Jacksonville Center
Thu 05:14:18 PM 33.2306 -81.7800 171° South 327 376 41,000  Level Jacksonville Center
Thu 05:15:19 PM 33.1406 -81.7664 173° South 327 376 41,000 -100 Level Jacksonville Center
Thu 05:16:18 PM 33.0547 -81.7500 171° South 327 376 40,800 -450 Descending Jacksonville Center
Thu 05:17:19 PM 32.9628 -81.7314 170° South 332 382 40,100 -397 Descending Jacksonville Center
Thu 05:18:19 PM 32.8833 -81.7175 172° South 319 367 40,000 -50 Descending Jacksonville Center
Thu 05:19:19 PM 32.8039 -81.7064 173° South 304 350 40,000  Level Jacksonville Center
Thu 05:20:18 PM 32.7244 -81.6925 172° South 298 343 40,000  Level Jacksonville Center
Thu 05:21:19 PM 32.6556 -81.6811 172° South 285 328 40,000  Level Jacksonville Center
Thu 05:22:19 PM 32.5656 -81.6650 171° South 290 334 40,000  Level Jacksonville Center
Thu 05:23:18 PM 32.4842 -81.6514 172° South 303 349 40,000  Level Jacksonville Center
Thu 05:24:19 PM 32.4089 -81.6375 171° South 303 349 40,000  Level Jacksonville Center
Thu 05:25:18 PM 32.3167 -81.6242 173° South 303 349 40,000  Level Jacksonville Center
Thu 05:26:19 PM 32.2353 -81.6106 172° South 309 356 40,000  Level Jacksonville Center
Thu 05:27:19 PM 32.1494 -81.5944 171° South 309 356 40,000  Level Jacksonville Center
Thu 05:28:18 PM 32.0658 -81.5786 171° South 315 362 40,000  Level Jacksonville Center
Thu 05:29:19 PM 31.9925 -81.5672 172° South 310 357 40,000  Level Jacksonville Center
Thu 05:30:19 PM 31.9006 -81.5517 172° South 310 357 40,000  Level Jacksonville Center
Thu 05:31:19 PM 31.8189 -81.5356 170° South 310 357 40,000  Level Jacksonville Center
Thu 05:32:18 PM 31.7394 -81.5244 173° South 310 357 40,000  Level Jacksonville Center
Thu 05:33:19 PM 31.6475 -81.5064 171° South 310 357 40,000  Level Jacksonville Center
Thu 05:34:19 PM 31.5742 -81.4928 171° South 310 357 40,000  Level Jacksonville Center
Thu 05:35:18 PM 31.4781 -81.4772 172° South 319 367 40,000  Level Jacksonville Center
Thu 05:36:19 PM 31.3922 -81.4614 171° South 313 360 40,000  Level Jacksonville Center
Thu 05:37:19 PM 31.3147 -81.4506 173° South 312 359 40,000  Level Jacksonville Center
Thu 05:38:19 PM 31.2269 -81.4350 171° South 317 365 40,000  Level Jacksonville Center
Thu 05:39:19 PM 31.1411 -81.4192 171° South 317 365 40,000  Level Jacksonville Center
Thu 05:40:18 PM 31.0556 -81.4061 173° South 317 365 40,000  Level Jacksonville Center
Thu 05:41:19 PM 30.9656 -81.3906 172° South 317 365 40,000  Level Jacksonville Center
Thu 05:42:19 PM 30.8775 -81.3772 173° South 317 365 40,000  Level Jacksonville Center
Thu 05:43:19 PM 30.7897 -81.3619 171° South 317 365 40,000  Level Jacksonville Center
Thu 05:44:19 PM 30.7019 -81.3464 171° South 317 365 40,000  Level Jacksonville Center
Thu 05:45:19 PM 30.6139 -81.3308 171° South 317 365 40,000  Level Jacksonville Center
Thu 05:46:19 PM 30.5261 -81.3058 166° South 317 365 40,000  Level Jacksonville Center
Thu 05:47:18 PM 30.4378 -81.2592 156° South 324 373 40,000  Level Jacksonville Center
Thu 05:48:18 PM 30.3475 -81.2197 159° South 337 388 40,000  Level Jacksonville Center
Thu 05:49:18 PM 30.2592 -81.1756 157° South 342 394 40,000  Level Jacksonville Center
Thu 05:50:19 PM 30.1689 -81.1314 157° South 347 399 40,000  Level Jacksonville Center
Thu 05:51:19 PM 30.0764 -81.0875 158° South 352 405 40,000  Level Jacksonville Center
Thu 05:52:18 PM 29.9839 -81.0461 159° South 357 411 40,000  Level Jacksonville Center
Thu 05:53:18 PM 29.8933 -81.0022 157° South 357 411 40,000  Level Jacksonville Center
Thu 05:54:19 PM 29.7989 -80.9564 157° South 357 411 40,000  Level Jacksonville Center
Thu 05:55:19 PM 29.7042 -80.9150 159° South 357 411 40,000  Level Jacksonville Center
Thu 05:56:19 PM 29.6094 -80.8692 157° South 357 411 40,000  Level Jacksonville Center
Thu 05:57:19 PM 29.5150 -80.8283 159° South 357 411 40,000  Level Jacksonville Center
Thu 05:59:35 PM 29.2919 -80.7175 157° South 373 429 40,000  Level Miami Center
Thu 06:00:37 PM 29.1950 -80.6714 157° South 375 432 40,000  Level Miami Center
Thu 06:01:39 PM 29.0975 -80.6278 159° South 375 432 40,000  Level Miami Center
Thu 06:02:41 PM 29.0000 -80.5819 158° South 376 433 40,000  Level Miami Center
Thu 06:03:56 PM 28.8708 -80.5217 158° South 376 433 40,000  Level Miami Center
Thu 06:04:58 PM 28.7692 -80.4747 158° South 376 433 40,000 -435 Level Miami Center
Thu 06:06:00 PM 28.6669 -80.4256 157° South 378 435 39,100 -1,152 Descending Miami Center
Thu 06:07:03 PM 28.5769 -80.3328 138° Southeast 416 479 37,600 -1,488 Descending Miami Center
Thu 06:08:05 PM 28.4914 -80.2397 136° Southeast 410 472 36,000 -1,500 Descending Miami Center
Thu 06:09:07 PM 28.4078 -80.1514 137° Southeast 395 455 34,500 -1,488 Descending Miami Center
Thu 06:10:10 PM 28.3219 -80.0656 139° Southeast 395 455 32,900 -1,200 Descending Miami Center
Thu 06:11:12 PM 28.2444 -79.9869 138° Southeast 391 450 32,000 -532 Descending Miami Center
Thu 06:12:14 PM 28.1586 -79.8997 138° Southeast 392 451 31,800 -629 Descending Miami Center
Thu 06:13:16 PM 28.0522 -79.8786 170° South 391 450 30,700 -1,056 Descending Miami Center
Thu 06:14:19 PM 27.9414 -79.8683 175° South 395 455 29,600 -1,056 Descending Miami Center
Thu 06:15:21 PM 27.8167 -79.8497 172° South 400 460 28,500 -1,065 Descending Miami Center
Thu 06:16:23 PM 27.6994 -79.8333 173° South 400 460 27,400 -1,065 Descending Miami Center
Thu 06:17:25 PM 27.5831 -79.8158 172° South 401 461 26,300 -1,056 Descending Miami Center
Thu 06:18:28 PM 27.4764 -79.8003 173° South 401 461 25,200 -1,008 Descending Miami Center
Thu 06:19:30 PM 27.3606 -79.7831 172° South 401 461 24,200 -968 Descending Miami Center
Thu 06:20:32 PM 27.2456 -79.7583 169° South 402 463 23,200 -1,210 Descending Miami Center
Thu 06:21:34 PM 27.1325 -79.7222 164° South 404 465 21,700 -1,632 Descending Miami Center
Thu 06:22:37 PM 27.0278 -79.6908 165° South 377 434 19,800 -1,920 Descending Miami Center
Thu 06:23:39 PM 26.9258 -79.6608 165° South 365 420 17,700 -1,839 Descending Miami Center
Thu 06:24:41 PM 26.8383 -79.6453 171° South 311 358 16,000 -1,568 Descending Miami Center
Thu 06:25:30 PM 26.7825 -79.6672 199° South 268 308 14,800 -1,452 Descending Miami Center
Thu 06:25:43 PM 26.7689 -79.6750 207° Southwest 284 327 14,500 -947 Descending Miami Center
Thu 06:25:49 PM 26.7694 -79.6733 70° East 263 303 14,500 -1,429 Level Miami Center
Thu 06:26:46 PM 26.6981 -79.7086 204° Southwest 276 318 13,000 -1,770 Descending Miami Center
Thu 06:26:50 PM 26.6853 -79.7161 208° Southwest 288 331 12,700 -1,452 Descending Miami Center
Thu 06:27:48 PM 26.6278 -79.7411 201° Southwest 276 318 11,500 -1,279 Descending Miami Center
Thu 06:27:51 PM 26.6164 -79.7483 210° Southwest 270 311 11,400 -1,569 Descending Miami Center
Thu 06:28:53 PM 26.5411 -79.7825 202° Southwest 268 308 9,800 -1,537 Descending Miami Center
Thu 06:29:52 PM 26.4783 -79.8128 203° Southwest 265 305 8,300 -1,377 Descending Miami Center
Thu 06:29:54 PM 26.4742 -79.8147 203° Southwest 263 303 8,400 -1,406 Climbing Miami Center
Thu 06:30:56 PM 26.4031 -79.8142 180° South 271 312 6,800 -2,000 Descending Miami Center
Thu 06:31:57 PM 26.3225 -79.7967 169° South 274 315 4,300 -1,902 Descending Miami Center
Thu 06:32:59 PM 26.2711 -79.8167 199° South 260 299 2,900 -1,113 Descending Miami Center
Thu 06:34:01 PM 26.2478 -79.8767 247° West 229 264 2,000 -484 Descending Miami Center
Thu 06:35:03 PM 26.2292 -79.9369 251° West 188 216 1,900 49 Descending Miami Center
Thu 06:36:03 PM 26.2153 -79.9769 249° West 130 150 2,100  Climbing Miami Center
Thu 06:36:06 PM 26.2169 -79.9747 50° Northeast 152 175 1,900 -185 Descending Miami Center
Thu 06:37:08 PM 26.2125 -80.0192 264° West 143 165 1,900 188 Level Miami Center
Thu 06:37:10 PM 26.2125 -80.0231 270° West 143 165 2,100 -194 Climbing Miami Center
Thu 06:38:10 PM 26.2092 -80.0633 265° West 143 165 1,700 -295 Descending Miami Center
Thu 06:38:11 PM 26.2075 -80.0714 257° West 145 167 1,800 -677 Climbing Miami Center
Thu 06:39:12 PM 26.2056 -80.1050 266° West 143 165 1,000 -677 Descending Miami Center
Thu 06:39:13 PM 26.2031 -80.1083 230° Southwest 122 140 1,100 -571 Climbing Miami Center
Thu 06:40:15 PM 26.2008 -80.1431 266° West 110 127 400 -677 Descending Miami Center
Thu 06:42:00 PM 26.1973 -80.1707 268° West  Level Estimated

Login

Don't have an account? Register now (free) for customized features, flight alerts, and more!